createdAt,value
2019-01-04T00:01:03.826Z,102160.59
2019-01-04T00:02:39.784Z,102180.26
2019-01-04T00:04:28.454Z,102175.92
2019-01-04T00:06:04.417Z,102179.12
2019-01-04T00:07:40.434Z,102171.82
2019-01-04T00:09:16.502Z,102172.84
2019-01-04T00:10:52.507Z,102178.70
2019-01-04T00:12:28.516Z,102179.47
2019-01-04T00:14:04.671Z,102178.08
2019-01-04T00:15:40.785Z,102169.72
2019-01-04T00:17:16.816Z,102178.34
2019-01-04T00:18:52.865Z,102181.98
2019-01-04T00:20:28.912Z,102186.27
2019-01-04T00:22:06.219Z,102180.89
2019-01-04T00:23:42.234Z,102186.30
2019-01-04T00:25:18.163Z,102182.31
2019-01-04T00:26:54.217Z,102185.55
2019-01-04T00:28:49.283Z,102185.82
2019-01-04T00:30:25.260Z,102183.68
2019-01-04T00:32:01.230Z,102186.16
2019-01-04T00:33:37.371Z,102188.12
2019-01-04T00:35:13.432Z,102196.91
2019-01-04T00:36:49.457Z,102190.84
2019-01-04T00:38:25.399Z,102202.44
2019-01-04T00:40:01.302Z,102186.49
2019-01-04T00:41:37.417Z,102199.14
2019-01-04T00:43:13.451Z,102200.19
2019-01-04T00:44:49.470Z,102203.17
2019-01-04T00:46:25.470Z,102205.19
2019-01-04T00:48:01.458Z,102207.95
2019-01-04T00:49:37.490Z,102211.64
2019-01-04T00:51:13.411Z,102210.66
2019-01-04T00:52:49.498Z,102218.97
2019-01-04T00:54:25.577Z,102220.08
2019-01-04T00:57:10.172Z,102220.12
2019-01-04T01:00:12.604Z,102215.74
2019-01-04T01:02:52.122Z,102206.71
2019-01-04T01:06:01.496Z,102203.34
2019-01-04T01:08:45.333Z,102206.11
2019-01-04T01:11:30.706Z,102216.67
2019-01-04T01:14:21.561Z,102212.80
2019-01-04T01:16:53.554Z,102216.12
2019-01-04T01:19:40.465Z,102215.94
2019-01-04T01:22:20.166Z,102214.78
2019-01-04T01:25:03.805Z,102212.80
2019-01-04T01:27:45.735Z,102218.33
2019-01-04T01:30:35.118Z,102220.23
2019-01-04T01:32:47.233Z,102210.52
2019-01-04T01:34:20.561Z,102215.20
2019-01-04T01:37:00.614Z,102209.36
2019-01-04T01:41:45.343Z,102214.88
2019-01-04T01:44:18.536Z,102216.78
2019-01-04T01:49:34.673Z,102216.06
2019-01-04T01:54:23.659Z,102211.95
2019-01-04T01:56:18.730Z,102207.53
2019-01-04T01:58:13.732Z,102219.20
2019-01-04T02:00:09.318Z,102218.49
2019-01-04T02:04:04.123Z,102211.19
2019-01-04T02:10:13.540Z,102208.64
2019-01-04T02:16:15.795Z,102206.59
2019-01-04T02:20:24.557Z,102214.45
2019-01-04T02:26:46.981Z,102203.78
2019-01-04T02:28:42.005Z,102207.87
2019-01-04T02:30:36.937Z,102200.77
2019-01-04T02:32:31.931Z,102204.22
2019-01-04T02:34:26.947Z,102195.91
2019-01-04T02:36:21.974Z,102199.03
2019-01-04T02:40:17.591Z,102192.04
2019-01-04T02:44:19.327Z,102192.69
2019-01-04T02:48:27.906Z,102190.41
2019-01-04T02:58:24.647Z,102181.75
2019-01-04T03:00:19.657Z,102185.38
2019-01-04T03:02:14.651Z,102183.06
2019-01-04T03:04:09.663Z,102175.73
2019-01-04T03:10:05.309Z,102180.71
2019-01-04T03:12:00.326Z,102181.33
2019-01-04T03:13:55.325Z,102179.17
2019-01-04T03:18:03.938Z,102170.40
2019-01-04T03:19:58.941Z,102173.59
2019-01-04T03:21:53.944Z,102180.45
2019-01-04T03:23:48.854Z,102167.23
2019-01-04T03:27:44.414Z,102157.20
2019-01-04T03:29:39.508Z,102164.85
2019-01-04T03:33:48.218Z,102166.42
2019-01-04T03:35:43.292Z,102161.65
2019-01-04T03:42:05.695Z,102156.50
2019-01-04T03:44:00.768Z,102152.95
2019-01-04T03:45:55.771Z,102149.84
2019-01-04T03:49:51.429Z,102153.16
2019-01-04T03:51:46.447Z,102140.84
2019-01-04T03:53:41.422Z,102134.52
2019-01-04T03:57:36.807Z,102122.79
2019-01-04T03:59:31.828Z,102121.18
2019-01-04T04:01:26.836Z,102120.57
2019-01-04T04:03:21.860Z,102111.59
2019-01-04T04:05:16.877Z,102107.19
2019-01-04T04:09:12.349Z,102111.42
2019-01-04T04:13:21.083Z,102113.48
2019-01-04T04:19:45.126Z,102100.75
2019-01-04T04:21:40.149Z,102107.91
2019-01-04T04:25:48.880Z,102103.29
2019-01-04T04:27:43.901Z,102102.09
2019-01-04T04:29:38.919Z,102101.16
2019-01-04T04:31:33.915Z,102099.23
2019-01-04T04:33:28.919Z,102103.52
2019-01-04T04:35:23.969Z,102112.16
2019-01-04T04:37:18.971Z,102106.01
2019-01-04T04:39:14.004Z,102108.91
2019-01-04T04:41:08.936Z,102107.05
2019-01-04T04:43:04.036Z,102100.11
2019-01-04T04:44:59.005Z,102100.48
2019-01-04T04:46:54.011Z,102089.45
2019-01-04T04:52:49.919Z,102089.23
2019-01-04T05:00:45.657Z,102090.45
2019-01-04T05:02:40.682Z,102094.99
2019-01-04T05:04:35.622Z,102091.98
2019-01-04T05:08:31.119Z,102095.29
2019-01-04T05:10:26.145Z,102092.52
2019-01-04T05:14:21.548Z,102087.20
2019-01-04T05:16:16.587Z,102084.18
2019-01-04T05:24:13.162Z,102081.95
2019-01-04T05:32:36.265Z,102082.03
2019-01-04T05:40:45.580Z,102066.63
2019-01-04T05:42:40.680Z,102062.38
2019-01-04T05:44:35.688Z,102066.12
2019-01-04T05:46:30.695Z,102069.48
2019-01-04T05:48:25.722Z,102073.26
2019-01-04T05:54:48.204Z,102069.24
2019-01-04T05:56:43.228Z,102074.84
2019-01-04T05:58:38.262Z,102080.15
2019-01-04T06:00:33.245Z,102076.16
2019-01-04T06:04:41.958Z,102079.23
2019-01-04T06:06:37.033Z,102077.93
2019-01-04T06:10:45.769Z,102080.09
2019-01-04T06:12:40.768Z,102072.89
2019-01-04T06:14:35.797Z,102073.63
2019-01-04T06:16:30.739Z,102074.95
2019-01-04T06:18:25.814Z,102073.89
2019-01-04T06:20:20.854Z,102075.80
2019-01-04T06:24:29.636Z,102069.77
2019-01-04T06:26:24.652Z,102075.09
2019-01-04T06:28:19.596Z,102069.56
2019-01-04T06:30:14.680Z,102056.14
2019-01-04T06:32:09.706Z,102060.48
2019-01-04T06:34:04.664Z,102050.72
2019-01-04T06:35:59.753Z,102048.64
2019-01-04T06:37:54.769Z,102049.44
2019-01-04T06:39:49.715Z,102046.17
2019-01-04T06:41:44.765Z,102046.75
2019-01-04T06:43:39.863Z,102043.47
2019-01-04T06:47:48.689Z,102039.49
2019-01-04T06:49:43.789Z,102043.81
2019-01-04T06:51:38.821Z,102040.48
2019-01-04T06:53:33.852Z,102047.92
2019-01-04T06:56:07.915Z,102045.31
2019-01-04T06:58:02.940Z,102048.73
2019-01-04T07:02:11.734Z,102046.77
2019-01-04T07:04:06.739Z,102043.09
2019-01-04T07:06:01.770Z,102041.77
2019-01-04T07:07:56.784Z,102044.27
2019-01-04T07:09:51.711Z,102042.02
2019-01-04T07:14:00.521Z,102041.45
2019-01-04T07:15:55.441Z,102049.61
2019-01-04T07:17:50.370Z,102037.14
2019-01-04T07:19:45.370Z,102043.50
2019-01-04T07:26:07.759Z,102048.61
2019-01-04T07:28:02.767Z,102044.87
2019-01-04T07:29:57.800Z,102040.77
2019-01-04T07:33:53.664Z,102046.94
2019-01-04T07:35:29.699Z,102047.70
2019-01-04T07:37:05.795Z,102053.55
2019-01-04T07:38:41.880Z,102052.50
2019-01-04T07:40:17.901Z,102048.08
2019-01-04T07:41:53.949Z,102045.09
2019-01-04T07:43:30.056Z,102044.86
2019-01-04T07:45:06.937Z,102043.30
2019-01-04T07:46:42.984Z,102034.78
2019-01-04T07:48:19.017Z,102032.69
2019-01-04T07:49:55.047Z,102032.18
2019-01-04T07:51:31.147Z,102032.97
2019-01-04T07:53:07.196Z,102031.23
2019-01-04T07:54:43.204Z,102028.95
2019-01-04T07:56:19.636Z,102023.31
2019-01-04T07:57:55.720Z,102028.97
2019-01-04T07:59:31.767Z,102020.13
2019-01-04T08:01:07.800Z,102025.41
2019-01-04T08:02:49.269Z,102028.02
2019-01-04T08:04:43.559Z,102028.28
2019-01-04T08:06:19.495Z,102025.54
2019-01-04T08:07:56.191Z,102021.83
2019-01-04T08:09:32.282Z,102027.43
2019-01-04T08:11:08.333Z,102021.62
2019-01-04T08:12:44.449Z,102014.88
2019-01-04T08:14:20.467Z,102013.39
2019-01-04T08:15:56.784Z,102015.03
2019-01-04T08:17:32.854Z,102015.92
2019-01-04T08:19:08.900Z,102008.58
2019-01-04T08:20:44.970Z,102005.48
2019-01-04T08:22:20.959Z,102003.44
2019-01-04T08:23:57.195Z,101996.02
2019-01-04T08:25:33.959Z,101992.23
2019-01-04T08:27:10.174Z,101989.45
2019-01-04T08:28:46.212Z,101989.48
2019-01-04T08:30:22.594Z,101984.52
2019-01-04T08:31:58.985Z,101987.36
2019-01-04T08:33:35.687Z,101987.52
2019-01-04T08:35:13.058Z,101982.81
2019-01-04T08:36:49.101Z,101976.06
2019-01-04T08:38:25.180Z,101963.91
2019-01-04T08:40:01.227Z,101962.20
2019-01-04T08:41:37.284Z,101966.14
2019-01-04T08:43:13.399Z,101961.91
2019-01-04T08:44:49.421Z,101959.37
2019-01-04T08:46:25.552Z,101961.51
2019-01-04T08:48:01.622Z,101966.05
2019-01-04T08:49:37.805Z,101975.08
2019-01-04T08:51:13.873Z,101962.58
2019-01-04T08:52:49.985Z,101960.81
2019-01-04T08:54:26.037Z,101950.23
2019-01-04T08:56:02.132Z,101942.34
2019-01-04T08:57:38.268Z,101945.48
2019-01-04T08:59:14.372Z,101945.70
2019-01-04T09:00:50.425Z,101944.62
2019-01-04T09:02:26.462Z,101940.20
2019-01-04T09:04:02.520Z,101926.47
2019-01-04T09:05:38.674Z,101935.29
2019-01-04T09:07:14.694Z,101935.36
2019-01-04T09:08:50.759Z,101928.59
2019-01-04T09:10:28.768Z,101923.66
2019-01-04T09:12:04.883Z,101918.91
2019-01-04T09:13:40.919Z,101919.02
2019-01-04T09:15:16.950Z,101916.31
2019-01-04T09:16:53.154Z,101917.17
2019-01-04T09:18:29.968Z,101917.87
2019-01-04T09:20:07.651Z,101908.36
2019-01-04T09:21:43.658Z,101906.65
2019-01-04T09:23:19.750Z,101910.75
2019-01-04T09:24:55.974Z,101907.64
2019-01-04T09:26:32.195Z,101901.13
2019-01-04T09:28:08.248Z,101893.42
2019-01-04T09:29:44.315Z,101899.93
2019-01-04T09:31:20.428Z,101897.18
2019-01-04T09:32:56.466Z,101900.08
2019-01-04T09:34:32.529Z,101896.41
2019-01-04T09:36:08.575Z,101895.14
2019-01-04T09:37:44.698Z,101901.41
2019-01-04T09:39:20.807Z,101895.83
2019-01-04T09:41:39.748Z,101899.80
2019-01-04T09:43:15.833Z,101893.27
2019-01-04T09:44:51.873Z,101882.89
2019-01-04T09:46:27.981Z,101883.15
2019-01-04T09:48:03.956Z,101885.48
2019-01-04T09:49:39.947Z,101874.86
2019-01-04T09:51:16.132Z,101867.30
2019-01-04T09:52:52.157Z,101867.97
2019-01-04T09:54:28.188Z,101867.20
2019-01-04T09:56:04.315Z,101866.08
2019-01-04T09:57:40.383Z,101872.83
2019-01-04T09:59:16.418Z,101873.03
2019-01-04T10:00:52.471Z,101872.64
2019-01-04T10:02:28.591Z,101869.26
2019-01-04T10:04:04.647Z,101869.10
2019-01-04T10:05:40.973Z,101868.05
2019-01-04T10:07:17.084Z,101869.34
2019-01-04T10:08:53.201Z,101855.17
2019-01-04T10:10:29.256Z,101847.41
2019-01-04T10:12:05.588Z,101851.77
2019-01-04T10:13:43.361Z,101840.77
2019-01-04T10:15:19.516Z,101831.26
2019-01-04T10:16:55.542Z,101819.45
2019-01-04T10:18:31.576Z,101818.08
2019-01-04T10:20:11.193Z,101804.77
2019-01-04T10:21:47.291Z,101793.32
2019-01-04T10:23:23.301Z,101796.52
2019-01-04T10:24:59.347Z,101787.27
2019-01-04T10:26:35.337Z,101781.50
2019-01-04T10:28:12.960Z,101780.70
2019-01-04T10:29:49.002Z,101778.53
2019-01-04T10:31:25.031Z,101775.18
2019-01-04T10:33:01.440Z,101768.64
2019-01-04T10:34:38.005Z,101767.95
2019-01-04T10:36:14.299Z,101766.33
2019-01-04T10:37:50.445Z,101768.52
2019-01-04T10:39:26.483Z,101751.11
2019-01-04T10:41:04.040Z,101765.55
2019-01-04T10:42:40.125Z,101760.62
2019-01-04T10:44:16.226Z,101754.41
2019-01-04T10:45:52.474Z,101741.92
2019-01-04T10:47:28.500Z,101733.89
2019-01-04T10:49:04.742Z,101731.87
2019-01-04T10:50:40.772Z,101732.18
2019-01-04T10:52:16.940Z,101725.34
2019-01-04T10:53:53.090Z,101731.65
2019-01-04T10:55:29.217Z,101727.69
2019-01-04T10:57:05.560Z,101723.63
2019-01-04T10:58:53.181Z,101710.66
2019-01-04T11:00:29.273Z,101710.75
2019-01-04T11:02:05.332Z,101703.68
2019-01-04T11:03:41.313Z,101706.58
2019-01-04T11:05:17.351Z,101690.95
2019-01-04T11:06:53.465Z,101692.73
2019-01-04T11:08:29.556Z,101686.48
2019-01-04T11:10:06.221Z,101677.51
2019-01-04T11:11:42.384Z,101675.14
2019-01-04T11:13:18.509Z,101675.02
2019-01-04T11:14:54.620Z,101672.81
2019-01-04T11:16:30.635Z,101673.66
2019-01-04T11:18:09.918Z,101665.77
2019-01-04T11:19:44.358Z,101658.00
2019-01-04T11:21:21.151Z,101664.84
2019-01-04T11:23:04.887Z,101651.58
2019-01-04T11:25:41.567Z,101643.95
2019-01-04T11:27:58.180Z,101645.70
2019-01-04T11:30:43.261Z,101632.41
2019-01-04T11:33:15.970Z,101624.70
2019-01-04T11:35:51.303Z,101628.33
2019-01-04T11:37:44.104Z,101630.64
2019-01-04T11:40:16.439Z,101626.36
2019-01-04T11:43:06.863Z,101615.61
2019-01-04T11:45:24.622Z,101600.75
2019-01-04T11:47:28.203Z,101598.88
2019-01-04T11:49:34.946Z,101593.31
2019-01-04T11:52:03.751Z,101581.11
2019-01-04T11:53:39.662Z,101586.63
2019-01-04T11:55:15.892Z,101580.09
2019-01-04T11:56:51.952Z,101581.38
2019-01-04T11:58:28.059Z,101576.80
2019-01-04T12:00:04.289Z,101575.80
2019-01-04T12:01:40.432Z,101568.83
2019-01-04T12:03:16.888Z,101563.93
2019-01-04T12:04:52.970Z,101567.40
2019-01-04T12:06:29.180Z,101559.13
2019-01-04T12:08:05.324Z,101547.50
2019-01-04T12:09:41.264Z,101550.11
2019-01-04T12:11:17.272Z,101539.27
2019-01-04T12:12:53.357Z,101530.62
2019-01-04T12:14:29.360Z,101528.30
2019-01-04T12:16:05.485Z,101525.91
2019-01-04T12:17:41.502Z,101525.70
2019-01-04T12:19:17.474Z,101521.37
2019-01-04T12:20:53.425Z,101518.97
2019-01-04T12:22:30.051Z,101510.70
2019-01-04T12:24:06.232Z,101508.22
2019-01-04T12:25:42.706Z,101514.22
2019-01-04T12:27:18.756Z,101502.23
2019-01-04T12:28:54.823Z,101501.27
2019-01-04T12:30:30.926Z,101508.51
2019-01-04T12:32:07.052Z,101505.06
2019-01-04T12:33:43.063Z,101501.70
2019-01-04T12:35:19.151Z,101491.37
2019-01-04T12:36:55.226Z,101485.83
2019-01-04T12:38:31.378Z,101489.58
2019-01-04T12:40:07.777Z,101480.25
2019-01-04T12:41:43.843Z,101477.78
2019-01-04T12:43:19.856Z,101470.33
2019-01-04T12:44:56.067Z,101471.07
2019-01-04T12:46:32.244Z,101468.78
2019-01-04T12:48:08.288Z,101481.08
2019-01-04T12:49:44.343Z,101472.30
2019-01-04T12:51:20.754Z,101466.06
2019-01-04T12:52:56.792Z,101469.95
2019-01-04T12:54:32.683Z,101471.03
2019-01-04T12:56:08.692Z,101466.77
2019-01-04T12:57:44.648Z,101470.33
2019-01-04T12:59:20.542Z,101470.39
2019-01-04T13:00:56.574Z,101465.91
2019-01-04T13:02:32.649Z,101469.53
2019-01-04T13:04:08.541Z,101456.42
2019-01-04T13:05:44.452Z,101458.14
2019-01-04T13:07:20.553Z,101461.81
2019-01-04T13:08:56.458Z,101457.58
2019-01-04T13:10:32.339Z,101454.94
2019-01-04T13:12:08.353Z,101453.87
2019-01-04T13:13:44.431Z,101462.28
2019-01-04T13:15:20.459Z,101448.97
2019-01-04T13:16:56.498Z,101441.14
2019-01-04T13:18:32.595Z,101444.75
2019-01-04T13:20:08.736Z,101442.09
2019-01-04T13:21:44.598Z,101433.45
2019-01-04T13:23:20.536Z,101432.45
2019-01-04T13:24:56.562Z,101439.95
2019-01-04T13:26:32.819Z,101447.88
2019-01-04T13:28:08.810Z,101442.45
2019-01-04T13:29:44.690Z,101450.32
2019-01-04T13:31:20.596Z,101457.69
2019-01-04T13:32:56.544Z,101464.88
2019-01-04T13:34:32.549Z,101458.12
2019-01-04T13:36:09.880Z,101460.05
2019-01-04T13:37:45.775Z,101443.64
2019-01-04T13:39:21.725Z,101450.63
2019-01-04T13:40:57.630Z,101448.97
2019-01-04T13:42:33.530Z,101444.77
2019-01-04T13:44:09.502Z,101454.52
2019-01-04T13:45:45.471Z,101453.13
2019-01-04T13:47:21.399Z,101455.79
2019-01-04T13:48:57.650Z,101452.38
2019-01-04T13:50:33.509Z,101445.88
2019-01-04T13:52:08.987Z,101444.86
2019-01-04T13:53:44.878Z,101433.89
2019-01-04T13:55:20.834Z,101427.51
2019-01-04T13:56:56.770Z,101431.17
2019-01-04T13:58:32.637Z,101432.08
2019-01-04T14:00:09.930Z,101439.66
2019-01-04T14:01:46.173Z,101439.50
2019-01-04T14:03:22.111Z,101429.73
2019-01-04T14:04:58.041Z,101434.69
2019-01-04T14:06:33.935Z,101437.14
2019-01-04T14:08:09.904Z,101440.17
2019-01-04T14:09:46.126Z,101441.98
2019-01-04T14:11:22.039Z,101428.94
2019-01-04T14:12:57.935Z,101427.34
2019-01-04T14:14:33.823Z,101422.81
2019-01-04T14:16:09.749Z,101423.60
2019-01-04T14:17:45.687Z,101428.56
2019-01-04T14:19:21.643Z,101424.02
2019-01-04T14:20:57.838Z,101424.14
2019-01-04T14:22:33.798Z,101420.19
2019-01-04T14:24:09.732Z,101415.12
2019-01-04T14:25:45.638Z,101407.34
2019-01-04T14:27:21.645Z,101406.13
2019-01-04T14:28:57.526Z,101406.98
2019-01-04T14:30:33.379Z,101410.44
2019-01-04T14:32:09.296Z,101407.83
2019-01-04T14:33:45.236Z,101414.06
2019-01-04T14:35:21.121Z,101415.70
2019-01-04T14:36:57.156Z,101413.73
2019-01-04T14:38:33.088Z,101411.45
2019-01-04T14:40:11.081Z,101416.24
2019-01-04T14:41:47.051Z,101405.64
2019-01-04T14:43:22.905Z,101417.14
2019-01-04T14:44:58.775Z,101408.42
2019-01-04T14:46:34.648Z,101400.80
2019-01-04T14:48:10.578Z,101397.55
2019-01-04T14:49:46.473Z,101390.36
2019-01-04T14:51:22.533Z,101389.98
2019-01-04T14:52:58.457Z,101392.28
2019-01-04T14:54:34.339Z,101381.05
2019-01-04T14:56:10.194Z,101368.27
2019-01-04T14:57:46.258Z,101364.64
2019-01-04T14:59:22.159Z,101363.86
2019-01-04T15:00:58.029Z,101350.22
2019-01-04T15:02:33.924Z,101351.72
2019-01-04T15:04:09.829Z,101337.50
2019-01-04T15:05:50.413Z,101331.75
2019-01-04T15:07:24.085Z,101328.87
2019-01-04T15:08:59.952Z,101317.53
2019-01-04T15:10:35.940Z,101314.07
2019-01-04T15:12:11.930Z,101312.84
2019-01-04T15:13:47.762Z,101315.61
2019-01-04T15:15:23.996Z,101314.81
2019-01-04T15:16:59.873Z,101316.03
2019-01-04T15:18:35.869Z,101302.25
2019-01-04T15:20:12.244Z,101303.33
2019-01-04T15:21:48.190Z,101309.19
2019-01-04T15:23:24.062Z,101320.66
2019-01-04T15:24:59.943Z,101313.11
2019-01-04T15:26:35.811Z,101317.27
2019-01-04T15:28:12.152Z,101317.52
2019-01-04T15:29:48.030Z,101317.32
2019-01-04T15:31:23.872Z,101315.28
2019-01-04T15:32:59.731Z,101317.38
2019-01-04T15:34:35.668Z,101311.34
2019-01-04T15:36:11.514Z,101313.89
2019-01-04T15:37:47.433Z,101310.11
2019-01-04T15:39:23.374Z,101299.47
2019-01-04T15:40:59.275Z,101299.69
2019-01-04T15:42:35.246Z,101304.04
2019-01-04T15:44:11.080Z,101309.42
2019-01-04T15:45:47.086Z,101304.47
2019-01-04T15:47:23.059Z,101302.80
2019-01-04T15:48:58.960Z,101290.17
2019-01-04T15:50:34.838Z,101312.98
2019-01-04T15:52:10.764Z,101305.52
2019-01-04T15:53:46.632Z,101302.70
2019-01-04T15:55:22.512Z,101313.83
2019-01-04T15:56:58.368Z,101310.63
2019-01-04T15:58:34.309Z,101301.27
2019-01-04T16:00:13.230Z,101296.25
2019-01-04T16:01:49.111Z,101301.75
2019-01-04T16:03:24.945Z,101298.23
2019-01-04T16:05:00.857Z,101298.33
2019-01-04T16:06:36.763Z,101310.91
2019-01-04T16:08:12.606Z,101279.33
2019-01-04T16:09:48.534Z,101282.19
2019-01-04T16:11:24.481Z,101277.77
2019-01-04T16:13:00.359Z,101283.33
2019-01-04T16:14:36.223Z,101280.45
2019-01-04T16:16:13.207Z,101275.53
2019-01-04T16:17:49.102Z,101267.49
2019-01-04T16:19:24.955Z,101274.15
2019-01-04T16:21:00.838Z,101261.57
2019-01-04T16:22:36.747Z,101257.48
2019-01-04T16:24:12.590Z,101260.73
2019-01-04T16:25:48.453Z,101253.77
2019-01-04T16:27:24.357Z,101255.40
2019-01-04T16:29:00.258Z,101248.78
2019-01-04T16:30:36.130Z,101254.29
2019-01-04T16:32:11.979Z,101243.48
2019-01-04T16:33:47.831Z,101253.06
2019-01-04T16:35:23.762Z,101246.25
2019-01-04T16:36:59.593Z,101244.59
2019-01-04T16:38:35.466Z,101253.17
2019-01-04T16:40:11.359Z,101246.34
2019-01-04T16:41:47.301Z,101248.64
2019-01-04T16:43:23.160Z,101246.51
2019-01-04T16:44:59.060Z,101258.17
2019-01-04T16:46:34.979Z,101240.86
2019-01-04T16:48:10.906Z,101245.44
2019-01-04T16:49:46.756Z,101250.23
2019-01-04T16:51:22.620Z,101255.86
2019-01-04T16:52:59.603Z,101257.53
2019-01-04T16:54:35.605Z,101259.22
2019-01-04T16:56:11.470Z,101259.05
2019-01-04T16:57:47.350Z,101256.02
2019-01-04T16:59:23.511Z,101255.33
2019-01-04T17:00:59.431Z,101259.74
2019-01-04T17:02:35.297Z,101254.95
2019-01-04T17:04:11.280Z,101253.78
2019-01-04T17:05:47.158Z,101249.56
2019-01-04T17:07:23.059Z,101247.06
2019-01-04T17:08:58.904Z,101248.82
2019-01-04T17:10:34.751Z,101241.42
2019-01-04T17:12:10.611Z,101234.05
2019-01-04T17:13:46.717Z,101235.92
2019-01-04T17:15:22.560Z,101224.58
2019-01-04T17:16:58.530Z,101229.86
2019-01-04T17:18:34.405Z,101227.41
2019-01-04T17:20:10.417Z,101226.57
2019-01-04T17:21:46.302Z,101232.16
2019-01-04T17:23:22.174Z,101232.59
2019-01-04T17:24:58.046Z,101237.70
2019-01-04T17:26:33.968Z,101233.97
2019-01-04T17:28:09.806Z,101233.75
2019-01-04T17:29:45.689Z,101235.68
2019-01-04T17:31:21.551Z,101230.13
2019-01-04T17:32:57.483Z,101235.24
2019-01-04T17:34:33.354Z,101230.77
2019-01-04T17:36:09.248Z,101229.38
2019-01-04T17:37:45.115Z,101234.13
2019-01-04T17:39:21.034Z,101225.60
2019-01-04T17:40:56.887Z,101228.26
2019-01-04T17:42:32.744Z,101226.50
2019-01-04T17:44:08.607Z,101216.97
2019-01-04T17:45:44.530Z,101217.39
2019-01-04T17:47:20.378Z,101212.34
2019-01-04T17:48:56.219Z,101212.22
2019-01-04T17:50:32.097Z,101216.70
2019-01-04T17:52:08.020Z,101214.94
2019-01-04T17:53:43.903Z,101214.72
2019-01-04T17:55:19.777Z,101221.52
2019-01-04T17:56:55.661Z,101221.47
2019-01-04T17:58:31.595Z,101226.88
2019-01-04T18:00:09.827Z,101213.99
2019-01-04T18:01:45.761Z,101221.83
2019-01-04T18:03:21.635Z,101222.55
2019-01-04T18:04:57.579Z,101218.92
2019-01-04T18:06:33.464Z,101212.28
2019-01-04T18:08:09.331Z,101215.32
2019-01-04T18:09:45.192Z,101221.38
2019-01-04T18:11:21.138Z,101207.20
2019-01-04T18:12:57.014Z,101206.28
2019-01-04T18:14:32.843Z,101217.94
2019-01-04T18:16:08.696Z,101213.77
2019-01-04T18:17:44.611Z,101207.42
2019-01-04T18:19:20.497Z,101215.98
2019-01-04T18:20:56.364Z,101217.22
2019-01-04T18:22:32.217Z,101211.64
2019-01-04T18:24:08.154Z,101222.36
2019-01-04T18:25:44.004Z,101222.04
2019-01-04T18:27:19.868Z,101212.36
2019-01-04T18:28:55.730Z,101222.00
2019-01-04T18:30:31.637Z,101221.20
2019-01-04T18:32:07.492Z,101235.68
2019-01-04T18:33:43.351Z,101217.55
2019-01-04T18:35:19.283Z,101224.02
2019-01-04T18:36:55.145Z,101217.81
2019-01-04T18:38:31.037Z,101208.43
2019-01-04T18:40:09.931Z,101209.46
2019-01-04T18:41:45.865Z,101214.88
2019-01-04T18:43:21.722Z,101215.17
2019-01-04T18:44:57.568Z,101223.80
2019-01-04T18:46:33.430Z,101218.91
2019-01-04T18:48:09.826Z,101221.16
2019-01-04T18:49:45.683Z,101226.44
2019-01-04T18:51:21.543Z,101227.97
2019-01-04T18:52:57.485Z,101218.86
2019-01-04T18:54:33.396Z,101228.62
2019-01-04T18:56:09.304Z,101235.32
2019-01-04T18:57:45.212Z,101235.34
2019-01-04T18:59:21.133Z,101233.37
2019-01-04T19:00:57.060Z,101241.30
2019-01-04T19:02:32.952Z,101240.39
2019-01-04T19:04:08.867Z,101241.20
2019-01-04T19:05:44.816Z,101239.35
2019-01-04T19:07:20.671Z,101238.28
2019-01-04T19:08:56.554Z,101238.98
2019-01-04T19:10:32.430Z,101250.91
2019-01-04T19:12:08.392Z,101254.44
2019-01-04T19:13:44.285Z,101245.69
2019-01-04T19:15:20.124Z,101253.69
2019-01-04T19:16:55.995Z,101254.86
2019-01-04T19:18:31.991Z,101263.06
2019-01-04T19:20:08.181Z,101265.70
2019-01-04T19:21:44.036Z,101265.45
2019-01-04T19:23:19.885Z,101264.99
2019-01-04T19:24:56.076Z,101265.14
2019-01-04T19:26:31.998Z,101258.17
2019-01-04T19:28:07.866Z,101264.88
2019-01-04T19:29:43.743Z,101252.61
2019-01-04T19:31:19.697Z,101255.31
2019-01-04T19:32:55.553Z,101254.19
2019-01-04T19:34:31.433Z,101247.81
2019-01-04T19:36:07.271Z,101256.44
2019-01-04T19:37:43.228Z,101254.53
2019-01-04T19:39:19.093Z,101262.14
2019-01-04T19:40:54.961Z,101262.73
2019-01-04T19:42:30.844Z,101264.34
2019-01-04T19:44:06.819Z,101261.41
2019-01-04T19:45:42.661Z,101257.36
2019-01-04T19:47:18.585Z,101261.39
2019-01-04T19:48:54.566Z,101250.05
2019-01-04T19:50:30.473Z,101248.57
2019-01-04T19:52:06.440Z,101240.41
2019-01-04T19:53:42.305Z,101242.66
2019-01-04T19:55:18.179Z,101231.47
2019-01-04T19:56:54.162Z,101233.86
2019-01-04T19:58:30.045Z,101244.51
2019-01-04T20:00:06.188Z,101234.59
2019-01-04T20:01:42.067Z,101235.98
2019-01-04T20:03:17.978Z,101231.72
2019-01-04T20:04:53.852Z,101232.09
2019-01-04T20:07:58.595Z,101224.67
2019-01-04T20:11:00.381Z,101232.22
2019-01-04T20:14:24.104Z,101226.37
2019-01-04T20:16:43.773Z,101231.02
2019-01-04T20:18:41.757Z,101228.47
2019-01-04T20:20:49.019Z,101228.34
2019-01-04T20:22:42.521Z,101223.28
2019-01-04T20:24:37.349Z,101220.28
2019-01-04T20:26:32.204Z,101224.02
2019-01-04T20:28:25.777Z,101220.20
2019-01-04T20:30:19.148Z,101216.37
2019-01-04T20:32:09.245Z,101209.18
2019-01-04T20:34:02.755Z,101214.83
2019-01-04T20:36:03.664Z,101215.58
2019-01-04T20:38:07.661Z,101213.53
2019-01-04T20:40:01.490Z,101216.98
2019-01-04T20:42:11.680Z,101210.32
2019-01-04T20:44:31.574Z,101216.11
2019-01-04T20:46:32.540Z,101208.80
2019-01-04T20:48:36.507Z,101206.61
2019-01-04T20:50:37.407Z,101200.81
2019-01-04T20:52:35.277Z,101203.66
2019-01-04T20:54:33.117Z,101197.31
2019-01-04T20:56:26.858Z,101188.63
2019-01-04T20:58:33.971Z,101189.67
2019-01-04T21:00:29.037Z,101181.87
2019-01-04T21:02:33.169Z,101181.63
2019-01-04T21:04:43.441Z,101179.05
2019-01-04T21:06:36.811Z,101175.09
2019-01-04T21:08:30.669Z,101173.44
2019-01-04T21:10:24.620Z,101167.39
2019-01-04T21:12:25.566Z,101156.45
2019-01-04T21:14:29.708Z,101161.42
2019-01-04T21:16:23.287Z,101164.27
2019-01-04T21:18:30.300Z,101168.50
2019-01-04T21:20:28.481Z,101166.59
2019-01-04T21:22:21.855Z,101169.05
2019-01-04T21:24:15.422Z,101167.64
2019-01-04T21:26:10.263Z,101169.33
2019-01-04T21:28:08.095Z,101173.28
2019-01-04T21:29:55.155Z,101179.23
2019-01-04T21:31:48.775Z,101179.74
2019-01-04T21:33:55.864Z,101184.40
2019-01-04T21:35:43.203Z,101168.82
2019-01-04T21:37:36.955Z,101173.90
2019-01-04T21:39:47.281Z,101166.30
2019-01-04T21:41:42.070Z,101164.35
2019-01-04T21:43:47.881Z,101158.23
2019-01-04T21:45:51.907Z,101151.02
2019-01-04T21:47:46.701Z,101145.83
2019-01-04T21:49:57.012Z,101143.99
2019-01-04T21:51:50.500Z,101141.06
2019-01-04T21:53:44.211Z,101133.72
2019-01-04T21:55:42.057Z,101130.31